Elation — 3FOC5 — position and weather

sailwx.info

Track history (hours):
 
Tides and Currents Weather Stations Pressure Air Temp Water Temp Dewpoint Dewpoint Depression Visibility Wind Speed Wind Dir Waves Ship Positions

Elation

Operator: Carnival Cruise Lines

Last reported at 2014-Dec-18 23:33 UTC. Time now 2014-Dec-22 07:50 UTC.
Position N 29°52' W 089°55'.

Type: Ship. MMSI: 355831000.

Date/timePositionNaut miles runAvg speedWind from/ knotsBaromVisibWave heightAir tempDewpointWater temp
2014-Dec-18 23:33N 29°52' W 089°55'9 8.4
2014-Dec-18 22:32N 29°57' W 090°04'0 0.2
2014-Dec-18 21:14N 29°56' W 090°04'0 0.0
2014-Dec-18 16:24N 29°56' W 090°04'4 1.1
2014-Dec-18 12:33N 29°56' W 089°59'5 5.3
2014-Dec-18 11:32N 29°50' W 089°59'1211.3
2014-Dec-18 10:30N 29°39' W 089°57'  
2014-Dec-14 00:14N 29°46' W 090°01'12 6.9
2014-Dec-13 22:31N 29°57' W 090°03'1 0.5
2014-Dec-13 20:12N 29°56' W 090°04'0 0.0
2014-Dec-13 14:31N 29°56' W 090°04'0 0.1
2014-Dec-13 13:32N 29°57' W 090°04'10 4.8
2014-Dec-13 11:30N 29°47' W 090°01'  
Track history (hours):
 
Tides and Currents Weather Stations Pressure Air Temp Water Temp Dewpoint Dewpoint Depression Visibility Wind Speed Wind Dir Waves Ship Positions

Elation

Operator: Carnival Cruise Lines

Last reported at 2014-Dec-18 23:33 UTC. Time now 2014-Dec-22 07:50 UTC.
Position N 29°52' W 089°55'.

Type: Ship. MMSI: 355831000.

Date/timePositionNaut miles runAvg speedWind from/ knotsBaromVisibWave heightAir tempDewpointWater temp
2014-Dec-18 23:33N 29°52' W 089°55'9 8.4
2014-Dec-18 22:32N 29°57' W 090°04'0 0.2
2014-Dec-18 21:14N 29°56' W 090°04'0 0.0
2014-Dec-18 16:24N 29°56' W 090°04'4 1.1
2014-Dec-18 12:33N 29°56' W 089°59'5 5.3
2014-Dec-18 11:32N 29°50' W 089°59'1211.3
2014-Dec-18 10:30N 29°39' W 089°57'  
2014-Dec-14 00:14N 29°46' W 090°01'12 6.9
2014-Dec-13 22:31N 29°57' W 090°03'1 0.5
2014-Dec-13 20:12N 29°56' W 090°04'0 0.0
2014-Dec-13 14:31N 29°56' W 090°04'0 0.1
2014-Dec-13 13:32N 29°57' W 090°04'10 4.8
2014-Dec-13 11:30N 29°47' W 090°01'  

Dump ship's entire track history